createdAt,value
2022-10-19T00:01:24.576Z,101953.40
2022-10-19T00:03:55.795Z,101947.00
2022-10-19T00:06:31.749Z,101940.20
2022-10-19T00:09:15.098Z,101946.40
2022-10-19T00:11:48.160Z,101938.80
2022-10-19T00:14:21.723Z,101942.80
2022-10-19T00:16:52.508Z,101938.60
2022-10-19T00:19:26.241Z,101940.80
2022-10-19T00:21:55.504Z,101944.20
2022-10-19T00:24:23.930Z,101939.60
2022-10-19T00:26:52.312Z,101943.00
2022-10-19T00:29:20.687Z,101945.40
2022-10-19T00:31:52.753Z,101945.80
2022-10-19T00:34:21.136Z,101944.20
2022-10-19T00:36:49.821Z,101946.40
2022-10-19T00:39:19.325Z,101951.80
2022-10-19T00:41:48.319Z,101943.60
2022-10-19T00:44:16.803Z,101946.00
2022-10-19T00:46:50.545Z,101946.60
2022-10-19T00:49:32.812Z,101945.60
2022-10-19T00:52:10.799Z,101939.40
2022-10-19T00:54:42.327Z,101945.80
2022-10-19T00:57:11.513Z,101942.80
2022-10-19T00:59:43.394Z,101946.40
2022-10-19T01:02:12.426Z,101947.60
2022-10-19T01:04:47.320Z,101951.40
2022-10-19T01:07:16.249Z,101947.20
2022-10-19T01:09:44.732Z,101956.00
2022-10-19T01:12:51.963Z,101955.20
2022-10-19T01:15:55.843Z,101956.00
2022-10-19T01:18:50.436Z,101952.60
2022-10-19T01:21:31.406Z,101955.20
2022-10-19T01:24:29.173Z,101949.60
2022-10-19T01:27:41.073Z,101952.00
2022-10-19T01:30:23.891Z,101947.40
2022-10-19T01:33:51.105Z,101942.60
2022-10-19T01:36:47.487Z,101932.60
2022-10-19T01:39:40.647Z,101936.60
2022-10-19T01:42:24.489Z,101933.40
2022-10-19T01:45:45.708Z,101930.40
2022-10-19T01:48:29.563Z,101934.20
2022-10-19T01:51:04.177Z,101930.20
2022-10-19T01:53:41.901Z,101931.60
2022-10-19T01:56:12.509Z,101931.40
2022-10-19T01:58:42.730Z,101928.00
2022-10-19T02:01:13.538Z,101922.80
2022-10-19T02:03:43.149Z,101918.40
2022-10-19T02:06:13.346Z,101923.00
2022-10-19T02:08:49.048Z,101917.20
2022-10-19T02:11:19.416Z,101919.60
2022-10-19T02:13:59.940Z,101918.40
2022-10-19T02:16:40.202Z,101914.60
2022-10-19T02:19:10.220Z,101909.60
2022-10-19T02:21:38.598Z,101915.20
2022-10-19T02:24:07.182Z,101917.20
2022-10-19T02:26:35.765Z,101908.80
2022-10-19T02:29:04.249Z,101906.40
2022-10-19T02:31:32.934Z,101907.60
2022-10-19T02:34:02.056Z,101911.20
2022-10-19T02:36:30.512Z,101909.20
2022-10-19T02:38:59.102Z,101910.20
2022-10-19T02:41:49.088Z,101911.40
2022-10-19T02:44:24.891Z,101910.20
2022-10-19T02:47:11.856Z,101907.60
2022-10-19T02:49:43.066Z,101906.60
2022-10-19T02:52:13.591Z,101908.60
2022-10-19T02:54:45.298Z,101908.20
2022-10-19T02:57:23.215Z,101908.60
2022-10-19T02:59:53.001Z,101907.60
2022-10-19T03:02:21.791Z,101907.40
2022-10-19T03:04:50.377Z,101906.60
2022-10-19T03:07:21.219Z,101908.40
2022-10-19T03:09:50.410Z,101907.00
2022-10-19T03:12:19.405Z,101907.80
2022-10-19T03:14:47.987Z,101910.80
2022-10-19T03:17:16.473Z,101908.40
2022-10-19T03:19:44.951Z,101908.20
2022-10-19T03:22:15.219Z,101907.20
2022-10-19T03:24:43.863Z,101902.00
2022-10-19T03:27:12.446Z,101912.20
2022-10-19T03:29:41.751Z,101911.80
2022-10-19T03:32:10.536Z,101911.80
2022-10-19T03:34:39.330Z,101905.00
2022-10-19T03:37:09.141Z,101908.20
2022-10-19T03:39:37.620Z,101907.60
2022-10-19T03:42:06.103Z,101910.80
2022-10-19T03:44:34.585Z,101915.20
2022-10-19T03:47:02.965Z,101913.80
2022-10-19T03:49:32.356Z,101916.00
2022-10-19T03:52:01.877Z,101917.60
2022-10-19T03:54:30.357Z,101917.60
2022-10-19T03:56:58.737Z,101918.40
2022-10-19T03:59:28.037Z,101918.80
2022-10-19T04:01:56.419Z,101925.60
2022-10-19T04:04:24.900Z,101927.60
2022-10-19T04:06:54.199Z,101930.00
2022-10-19T04:09:23.941Z,101932.80
2022-10-19T04:11:52.705Z,101923.60
2022-10-19T04:14:32.798Z,101928.40
2022-10-19T04:17:07.795Z,101931.60
2022-10-19T04:19:37.004Z,101937.20
2022-10-19T04:22:05.777Z,101942.80
2022-10-19T04:24:34.566Z,101946.40
2022-10-19T04:27:03.053Z,101945.80
2022-10-19T04:29:31.939Z,101945.40
2022-10-19T04:32:00.460Z,101945.40
2022-10-19T04:34:28.903Z,101954.00
2022-10-19T04:36:59.726Z,101956.20
2022-10-19T04:39:28.428Z,101959.00
2022-10-19T04:41:57.011Z,101960.00
2022-10-19T04:44:25.500Z,101968.60
2022-10-19T04:46:53.978Z,101966.40
2022-10-19T04:49:22.665Z,101968.00
2022-10-19T04:51:51.043Z,101967.00
2022-10-19T04:54:19.626Z,101967.60
2022-10-19T04:56:48.211Z,101973.60
2022-10-19T04:59:16.590Z,101975.80
2022-10-19T05:01:47.362Z,101982.80
2022-10-19T05:04:16.124Z,101974.40
2022-10-19T05:06:44.904Z,101978.80
2022-10-19T05:09:13.587Z,101980.20
2022-10-19T05:11:42.074Z,101981.60
2022-10-19T05:14:10.597Z,101983.00
2022-10-19T05:16:39.037Z,101978.60
2022-10-19T05:19:07.727Z,101970.60
2022-10-19T05:21:36.208Z,101965.20
2022-10-19T05:24:04.692Z,101961.00
2022-10-19T05:26:33.375Z,101963.40
2022-10-19T05:29:03.011Z,101966.60
2022-10-19T05:31:34.539Z,101967.40
2022-10-19T05:34:04.370Z,101969.40
2022-10-19T05:36:37.093Z,101970.40
2022-10-19T05:39:15.294Z,101969.20
2022-10-19T05:41:47.833Z,101973.20
2022-10-19T05:44:20.314Z,101970.40
2022-10-19T05:46:50.372Z,101968.00
2022-10-19T05:49:22.305Z,101973.60
2022-10-19T05:51:50.860Z,101978.80
2022-10-19T05:54:22.663Z,101978.40
2022-10-19T05:56:53.558Z,101980.00
2022-10-19T05:59:24.624Z,101990.20
2022-10-19T06:01:53.164Z,101988.80
2022-10-19T06:04:21.782Z,101995.20
2022-10-19T06:06:50.251Z,101992.80
2022-10-19T06:09:18.836Z,101995.60
2022-10-19T06:11:48.344Z,101997.80
2022-10-19T06:14:16.926Z,102007.60
2022-10-19T06:16:46.401Z,102008.60
2022-10-19T06:19:15.222Z,102002.80
2022-10-19T06:21:46.111Z,102007.40
2022-10-19T06:24:15.360Z,102012.80
2022-10-19T06:26:43.842Z,102017.40
2022-10-19T06:29:13.350Z,102014.60
2022-10-19T06:31:42.137Z,102024.40
2022-10-19T06:34:10.654Z,102018.80
2022-10-19T06:36:39.204Z,102018.80
2022-10-19T06:39:08.438Z,102012.00
2022-10-19T06:41:37.295Z,102009.60
2022-10-19T06:44:21.137Z,102014.20
2022-10-19T06:46:49.619Z,102011.20
2022-10-19T06:49:17.997Z,102012.20
2022-10-19T06:51:46.787Z,102016.60
2022-10-19T06:54:15.475Z,102014.40
2022-10-19T06:56:45.432Z,102016.40
2022-10-19T06:59:14.972Z,102019.60
2022-10-19T07:01:43.993Z,102028.40
2022-10-19T07:04:12.475Z,102026.20
2022-10-19T07:06:40.853Z,102027.00
2022-10-19T07:09:09.233Z,102026.40
2022-10-19T07:11:42.403Z,102030.60
2022-10-19T07:14:14.799Z,102032.20
2022-10-19T07:16:43.291Z,102029.40
2022-10-19T07:19:13.412Z,102028.60
2022-10-19T07:21:43.316Z,102018.00
2022-10-19T07:24:12.208Z,102015.40
2022-10-19T07:26:40.902Z,102006.40
2022-10-19T07:29:09.378Z,102010.00
2022-10-19T07:31:37.860Z,102009.20
2022-10-19T07:34:06.658Z,102010.00
2022-10-19T07:36:37.101Z,102017.00
2022-10-19T07:39:07.522Z,102010.60
2022-10-19T07:41:36.056Z,102011.40
2022-10-19T07:44:05.420Z,102010.20
2022-10-19T07:46:34.384Z,102006.80
2022-10-19T07:49:06.041Z,101998.80
2022-10-19T07:51:34.831Z,102006.40
2022-10-19T07:54:04.437Z,102011.80
2022-10-19T07:56:33.533Z,102020.40
2022-10-19T07:59:03.057Z,102023.00
2022-10-19T08:01:38.402Z,102031.00
2022-10-19T08:06:56.236Z,102040.60
2022-10-19T08:12:15.533Z,102045.20
2022-10-19T08:14:44.218Z,102042.80
2022-10-19T08:17:16.990Z,102045.20
2022-10-19T08:19:47.259Z,102046.80
2022-10-19T08:22:15.909Z,102052.20
2022-10-19T08:24:44.288Z,102054.00
2022-10-19T08:27:12.873Z,102052.60
2022-10-19T08:29:41.353Z,102053.40
2022-10-19T08:32:09.836Z,102054.80
2022-10-19T08:34:38.317Z,102047.80
2022-10-19T08:37:19.695Z,102049.20
2022-10-19T08:39:55.552Z,102042.00
2022-10-19T08:42:36.416Z,102049.00
2022-10-19T08:45:19.960Z,102048.40
2022-10-19T08:47:54.385Z,102049.40
2022-10-19T08:50:39.776Z,102047.20
2022-10-19T08:53:52.755Z,102052.20
2022-10-19T08:56:49.816Z,102056.60
2022-10-19T08:59:54.676Z,102061.80
2022-10-19T09:02:46.401Z,102054.80
2022-10-19T09:05:38.948Z,102051.00
2022-10-19T09:08:16.701Z,102046.00
2022-10-19T09:10:51.533Z,102048.80
2022-10-19T09:13:41.562Z,102058.00
2022-10-19T09:16:22.848Z,102072.20
2022-10-19T09:18:51.378Z,102069.80
2022-10-19T09:21:36.778Z,102066.40
2022-10-19T09:24:44.306Z,102070.60
2022-10-19T09:27:39.106Z,102077.00
2022-10-19T09:30:19.420Z,102080.00
2022-10-19T09:33:02.385Z,102085.40
2022-10-19T09:35:39.147Z,102091.60
2022-10-19T09:38:08.177Z,102091.40
2022-10-19T09:40:36.864Z,102098.00
2022-10-19T09:43:20.282Z,102098.20
2022-10-19T09:46:19.715Z,102101.80
2022-10-19T09:48:52.634Z,102106.80
2022-10-19T09:51:21.907Z,102110.20
2022-10-19T09:53:54.136Z,102106.00
2022-10-19T09:56:28.432Z,102102.60
2022-10-19T09:58:59.078Z,102107.80
2022-10-19T10:01:43.231Z,102107.00
2022-10-19T10:04:18.542Z,102107.20
2022-10-19T10:06:49.509Z,102114.60
2022-10-19T10:09:24.117Z,102119.60
2022-10-19T10:11:57.033Z,102115.80
2022-10-19T10:14:35.305Z,102116.40
2022-10-19T10:17:30.589Z,102114.40
2022-10-19T10:19:59.139Z,102115.60
2022-10-19T10:22:35.581Z,102108.00
2022-10-19T10:25:18.100Z,102103.20
2022-10-19T10:28:29.202Z,102109.80
2022-10-19T10:31:06.558Z,102111.40
2022-10-19T10:33:44.924Z,102106.80
2022-10-19T10:36:14.717Z,102105.20
2022-10-19T10:38:52.427Z,102104.00
2022-10-19T10:41:23.986Z,102102.60
2022-10-19T10:44:07.101Z,102098.20
2022-10-19T10:47:01.487Z,102091.80
2022-10-19T10:49:36.972Z,102093.60
2022-10-19T10:52:17.576Z,102093.40
2022-10-19T10:55:26.853Z,102091.00
2022-10-19T10:58:17.949Z,102101.20
2022-10-19T11:00:49.538Z,102108.00
2022-10-19T11:03:26.587Z,102107.00
2022-10-19T11:05:59.330Z,102106.60
2022-10-19T11:09:08.562Z,102106.40
2022-10-19T11:11:42.396Z,102108.60
2022-10-19T11:14:37.724Z,102114.20
2022-10-19T11:17:21.362Z,102109.40
2022-10-19T11:19:53.941Z,102111.80
2022-10-19T11:22:48.534Z,102116.20
2022-10-19T11:25:54.910Z,102115.00
2022-10-19T11:28:33.525Z,102120.60
2022-10-19T11:31:16.652Z,102120.60
2022-10-19T11:34:16.147Z,102123.40
2022-10-19T11:37:14.645Z,102125.20
2022-10-19T11:40:26.649Z,102116.40
2022-10-19T11:43:13.257Z,102119.80
2022-10-19T11:45:52.288Z,102116.60
2022-10-19T11:48:37.078Z,102113.80
2022-10-19T11:51:39.732Z,102124.00
2022-10-19T11:54:41.187Z,102113.00
2022-10-19T11:57:41.006Z,102104.00
2022-10-19T12:00:37.633Z,102103.80
2022-10-19T12:03:40.638Z,102099.00
2022-10-19T12:06:27.858Z,102099.60
2022-10-19T12:09:43.754Z,102100.00
2022-10-19T12:12:31.127Z,102102.80
2022-10-19T12:15:11.642Z,102095.80
2022-10-19T12:17:47.672Z,102089.60
2022-10-19T12:20:44.141Z,102092.80
2022-10-19T12:23:37.787Z,102092.20
2022-10-19T12:26:16.637Z,102097.40
2022-10-19T12:28:56.075Z,102097.20
2022-10-19T12:31:27.588Z,102091.40
2022-10-19T12:34:17.001Z,102091.00
2022-10-19T12:37:01.356Z,102091.60
2022-10-19T12:40:05.167Z,102092.60
2022-10-19T12:43:02.320Z,102090.20
2022-10-19T12:45:39.302Z,102086.00
2022-10-19T12:48:13.313Z,102076.40
2022-10-19T12:50:51.017Z,102080.80
2022-10-19T12:53:39.114Z,102083.40
2022-10-19T12:56:26.683Z,102078.60
2022-10-19T12:59:01.765Z,102083.20
2022-10-19T13:01:36.450Z,102079.00
2022-10-19T13:04:22.133Z,102080.20
2022-10-19T13:07:01.734Z,102086.00
2022-10-19T13:09:39.986Z,102077.60
2022-10-19T13:12:22.105Z,102085.00
2022-10-19T13:15:04.191Z,102077.60
2022-10-19T13:17:40.966Z,102077.60
2022-10-19T13:20:15.286Z,102079.20
2022-10-19T13:23:10.393Z,102082.80
2022-10-19T13:25:40.535Z,102088.40
2022-10-19T13:28:18.005Z,102086.80
2022-10-19T13:30:46.487Z,102089.00
2022-10-19T13:33:30.636Z,102094.80
2022-10-19T13:35:59.017Z,102087.40
2022-10-19T13:38:58.835Z,102091.60
2022-10-19T13:41:49.536Z,102085.40
2022-10-19T13:44:28.373Z,102087.40
2022-10-19T13:47:43.747Z,102085.80
2022-10-19T13:50:21.339Z,102091.60
2022-10-19T13:53:07.945Z,102090.20
2022-10-19T13:55:48.613Z,102091.20
2022-10-19T13:58:39.033Z,102089.80
2022-10-19T14:01:52.281Z,102086.20
2022-10-19T14:04:46.732Z,102081.80
2022-10-19T14:07:26.856Z,102082.60
2022-10-19T14:10:15.441Z,102079.60
2022-10-19T14:12:46.283Z,102071.60
2022-10-19T14:15:33.657Z,102078.20
2022-10-19T14:18:05.125Z,102073.00
2022-10-19T14:20:39.277Z,102074.80
2022-10-19T14:23:33.457Z,102081.20
2022-10-19T14:26:12.687Z,102073.40
2022-10-19T14:28:43.267Z,102076.60
2022-10-19T14:31:22.662Z,102068.40
2022-10-19T14:33:56.497Z,102069.60
2022-10-19T14:36:43.382Z,102076.80
2022-10-19T14:39:34.242Z,102075.20
2022-10-19T14:42:10.145Z,102076.40
2022-10-19T14:44:44.602Z,102077.80
2022-10-19T14:47:23.398Z,102086.80
2022-10-19T14:49:52.027Z,102082.20
2022-10-19T14:52:32.237Z,102081.60
2022-10-19T14:55:05.223Z,102080.40
2022-10-19T14:57:38.665Z,102080.60
2022-10-19T15:00:17.267Z,102076.60
2022-10-19T15:02:58.624Z,102085.60
2022-10-19T15:05:31.485Z,102078.80
2022-10-19T15:08:10.002Z,102084.00
2022-10-19T15:10:46.239Z,102078.40
2022-10-19T15:13:31.478Z,102075.20
2022-10-19T15:16:00.673Z,102076.20
2022-10-19T15:18:49.668Z,102084.20
2022-10-19T15:21:21.834Z,102077.40
2022-10-19T15:23:53.008Z,102076.40
2022-10-19T15:26:27.430Z,102083.80
2022-10-19T15:29:19.700Z,102081.40
2022-10-19T15:31:48.280Z,102081.40
2022-10-19T15:34:44.308Z,102088.20
2022-10-19T15:37:23.231Z,102091.80
2022-10-19T15:39:52.902Z,102088.20
2022-10-19T15:42:48.982Z,102092.60
2022-10-19T15:45:39.446Z,102096.60
2022-10-19T15:48:11.031Z,102098.00
2022-10-19T15:50:49.042Z,102096.20
2022-10-19T15:53:17.924Z,102093.60
2022-10-19T15:55:46.791Z,102097.60
2022-10-19T15:58:16.265Z,102102.40
2022-10-19T16:00:45.314Z,102096.60
2022-10-19T16:03:14.308Z,102096.40
2022-10-19T16:05:42.792Z,102101.20
2022-10-19T16:08:12.518Z,102104.40
2022-10-19T16:10:41.302Z,102105.80
2022-10-19T16:13:10.610Z,102109.60
2022-10-19T16:15:39.562Z,102116.60
2022-10-19T16:18:11.480Z,102117.20
2022-10-19T16:20:40.647Z,102128.20
2022-10-19T16:23:10.801Z,102130.80
2022-10-19T16:25:39.351Z,102127.40
2022-10-19T16:28:08.655Z,102131.00
2022-10-19T16:30:37.542Z,102132.40
2022-10-19T16:33:06.348Z,102133.60
2022-10-19T16:35:38.268Z,102136.40
2022-10-19T16:38:06.682Z,102137.20
2022-10-19T16:40:35.595Z,102135.60
2022-10-19T16:43:05.278Z,102140.80
2022-10-19T16:45:34.272Z,102143.60
2022-10-19T16:48:03.062Z,102147.80
2022-10-19T16:50:31.777Z,102146.80
2022-10-19T16:53:06.944Z,102149.20
2022-10-19T16:55:35.777Z,102150.40
2022-10-19T16:58:04.772Z,102152.00
2022-10-19T17:00:34.037Z,102154.00
2022-10-19T17:03:03.272Z,102156.60
2022-10-19T17:05:32.061Z,102158.60
2022-10-19T17:08:00.543Z,102161.60
2022-10-19T17:10:29.563Z,102167.00
2022-10-19T17:12:58.838Z,102171.20
2022-10-19T17:15:43.568Z,102177.60
2022-10-19T17:18:12.234Z,102181.20
2022-10-19T17:20:41.078Z,102178.40
2022-10-19T17:23:09.713Z,102179.40
2022-10-19T17:25:38.708Z,102178.00
2022-10-19T17:28:07.549Z,102181.20
2022-10-19T17:30:42.494Z,102184.80
2022-10-19T17:33:10.970Z,102190.80
2022-10-19T17:35:39.578Z,102191.80
2022-10-19T17:38:08.785Z,102193.80
2022-10-19T17:40:38.325Z,102201.20
2022-10-19T17:43:07.047Z,102201.60
2022-10-19T17:45:35.563Z,102204.20
2022-10-19T17:48:05.159Z,102208.40
2022-10-19T17:50:33.822Z,102214.80
2022-10-19T17:53:03.050Z,102216.80
2022-10-19T17:55:32.127Z,102216.60
2022-10-19T17:58:02.133Z,102218.80
2022-10-19T18:00:30.616Z,102222.60
2022-10-19T18:02:59.270Z,102228.60
2022-10-19T18:05:27.783Z,102233.00
2022-10-19T18:07:56.266Z,102239.20
2022-10-19T18:10:24.855Z,102237.40
2022-10-19T18:12:53.434Z,102239.00
2022-10-19T18:15:22.020Z,102242.40
2022-10-19T18:17:50.500Z,102239.40
2022-10-19T18:20:18.883Z,102243.00
2022-10-19T18:22:47.363Z,102240.20
2022-10-19T18:25:25.985Z,102246.00
2022-10-19T18:28:06.404Z,102249.00
2022-10-19T18:30:39.756Z,102247.60
2022-10-19T18:33:09.253Z,102253.80
2022-10-19T18:35:40.187Z,102250.20
2022-10-19T18:38:08.873Z,102246.80
2022-10-19T18:40:38.533Z,102246.60
2022-10-19T18:43:07.168Z,102247.80
2022-10-19T18:45:35.650Z,102252.20
2022-10-19T18:48:04.634Z,102251.60
2022-10-19T18:50:33.228Z,102251.40
2022-10-19T18:53:01.607Z,102251.80
2022-10-19T18:55:29.989Z,102255.20
2022-10-19T18:57:58.367Z,102256.00
2022-10-19T19:00:26.745Z,102255.80
2022-10-19T19:02:56.184Z,102254.60
2022-10-19T19:05:24.634Z,102254.80
2022-10-19T19:07:55.572Z,102255.20
2022-10-19T19:10:24.119Z,102252.60
2022-10-19T19:12:52.538Z,102251.40
2022-10-19T19:15:21.119Z,102257.00
2022-10-19T19:17:49.501Z,102252.20
2022-10-19T19:20:17.981Z,102256.20
2022-10-19T19:22:46.361Z,102258.60
2022-10-19T19:25:14.740Z,102252.80
2022-10-19T19:27:43.121Z,102258.60
2022-10-19T19:30:11.603Z,102260.40
2022-10-19T19:32:41.517Z,102260.80
2022-10-19T19:35:10.232Z,102263.60
2022-10-19T19:37:39.135Z,102255.80
2022-10-19T19:40:09.019Z,102258.00
2022-10-19T19:42:38.212Z,102262.40
2022-10-19T19:45:07.941Z,102268.60
2022-10-19T19:47:36.607Z,102266.80
2022-10-19T19:50:06.210Z,102261.80
2022-10-19T19:52:40.131Z,102262.80
2022-10-19T19:55:09.329Z,102261.40
2022-10-19T19:57:38.427Z,102264.40
2022-10-19T20:00:08.700Z,102262.60
2022-10-19T20:02:40.197Z,102266.40
2022-10-19T20:05:09.952Z,102265.60
2022-10-19T20:07:38.815Z,102271.60
2022-10-19T20:10:08.397Z,102273.20
2022-10-19T20:12:37.096Z,102274.20
2022-10-19T20:15:06.894Z,102274.40
2022-10-19T20:17:35.939Z,102281.80
2022-10-19T20:20:07.772Z,102284.40
2022-10-19T20:22:36.965Z,102290.60
2022-10-19T20:25:06.405Z,102284.80
2022-10-19T20:27:36.597Z,102289.60
2022-10-19T20:30:07.063Z,102288.80
2022-10-19T20:32:36.877Z,102287.40
2022-10-19T20:35:07.901Z,102291.40
2022-10-19T20:37:36.460Z,102291.40
2022-10-19T20:40:08.810Z,102296.40
2022-10-19T20:42:37.900Z,102297.00
2022-10-19T20:45:07.709Z,102298.60
2022-10-19T20:47:36.223Z,102295.80
2022-10-19T20:50:07.389Z,102303.80
2022-10-19T20:52:36.564Z,102304.80
2022-10-19T20:55:07.441Z,102311.00
2022-10-19T20:57:36.093Z,102310.20
2022-10-19T21:00:06.274Z,102312.40
2022-10-19T21:02:34.950Z,102311.00
2022-10-19T21:05:04.407Z,102314.00
2022-10-19T21:07:32.988Z,102318.60
2022-10-19T21:10:01.482Z,102320.60
2022-10-19T21:12:30.603Z,102318.20
2022-10-19T21:14:59.673Z,102319.00
2022-10-19T21:17:28.295Z,102321.40
2022-10-19T21:19:57.454Z,102322.20
2022-10-19T21:22:26.571Z,102327.60
2022-10-19T21:24:55.389Z,102328.40
2022-10-19T21:27:24.019Z,102326.20
2022-10-19T21:29:52.703Z,102320.20
2022-10-19T21:32:22.425Z,102325.00
2022-10-19T21:34:51.192Z,102328.80
2022-10-19T21:37:19.892Z,102324.00
2022-10-19T21:39:48.376Z,102324.00
2022-10-19T21:42:17.368Z,102318.80
2022-10-19T21:44:46.466Z,102315.20
2022-10-19T21:47:15.154Z,102318.40
2022-10-19T21:49:43.907Z,102316.80
2022-10-19T21:52:15.930Z,102310.20
2022-10-19T21:54:45.102Z,102311.20
2022-10-19T21:57:13.897Z,102310.00
2022-10-19T21:59:42.829Z,102302.60
2022-10-19T22:02:11.860Z,102314.20
2022-10-19T22:04:40.360Z,102310.40
2022-10-19T22:07:08.946Z,102314.20
2022-10-19T22:09:37.428Z,102307.40
2022-10-19T22:12:06.677Z,102309.40
2022-10-19T22:14:35.230Z,102306.40
2022-10-19T22:17:04.103Z,102307.40
2022-10-19T22:19:32.891Z,102305.60
2022-10-19T22:22:01.686Z,102303.40
2022-10-19T22:24:30.371Z,102305.60
2022-10-19T22:26:58.958Z,102303.40
2022-10-19T22:29:27.550Z,102302.20
2022-10-19T22:31:56.130Z,102300.60
2022-10-19T22:34:24.911Z,102301.00
2022-10-19T22:36:53.697Z,102300.20
2022-10-19T22:39:25.730Z,102308.00
2022-10-19T22:41:56.716Z,102304.60
2022-10-19T22:44:25.295Z,102306.20
2022-10-19T22:46:54.384Z,102307.20
2022-10-19T22:49:23.686Z,102303.40
2022-10-19T22:51:52.169Z,102301.00
2022-10-19T22:54:21.062Z,102301.00
2022-10-19T22:56:49.850Z,102296.80
2022-10-19T22:59:18.536Z,102296.40
2022-10-19T23:01:47.569Z,102292.40
2022-10-19T23:04:16.117Z,102287.60
2022-10-19T23:06:44.699Z,102291.80
2022-10-19T23:09:13.385Z,102292.80
2022-10-19T23:11:42.487Z,102284.00
2022-10-19T23:14:10.988Z,102283.00
2022-10-19T23:16:39.957Z,102287.60
2022-10-19T23:19:08.443Z,102284.60
2022-10-19T23:21:37.330Z,102280.80
2022-10-19T23:24:07.027Z,102281.40
2022-10-19T23:26:36.729Z,102282.20
2022-10-19T23:29:05.246Z,102280.00
2022-10-19T23:31:34.535Z,102279.80
2022-10-19T23:34:03.529Z,102278.00
2022-10-19T23:36:32.323Z,102282.40
2022-10-19T23:39:00.801Z,102285.40
2022-10-19T23:41:29.283Z,102296.00
2022-10-19T23:43:58.417Z,102294.40
2022-10-19T23:46:27.372Z,102296.20
2022-10-19T23:48:56.060Z,102298.00
2022-10-19T23:51:24.541Z,102299.60
2022-10-19T23:53:53.828Z,102296.00
2022-10-19T23:56:27.409Z,102300.00
2022-10-19T23:58:57.115Z,102297.00
